createdAt,value
2023-12-16T00:01:24.327Z,103756.75
2023-12-16T00:03:51.791Z,103756.75
2023-12-16T00:06:21.901Z,103754.06
2023-12-16T00:08:49.677Z,103757.47
2023-12-16T00:11:17.043Z,103759.28
2023-12-16T00:13:44.577Z,103761.00
2023-12-16T00:16:12.231Z,103763.72
2023-12-16T00:18:39.664Z,103764.53
2023-12-16T00:21:08.736Z,103766.22
2023-12-16T00:23:35.829Z,103767.16
2023-12-16T00:26:03.320Z,103764.53
2023-12-16T00:28:30.545Z,103764.53
2023-12-16T00:30:58.558Z,103769.78
2023-12-16T00:33:25.796Z,103762.72
2023-12-16T00:35:52.982Z,103758.38
2023-12-16T00:38:21.365Z,103760.19
2023-12-16T00:40:48.458Z,103751.44
2023-12-16T00:43:15.798Z,103748.59
2023-12-16T00:45:42.889Z,103747.72
2023-12-16T00:48:10.098Z,103747.63
2023-12-16T00:50:39.433Z,103738.84
2023-12-16T00:53:06.664Z,103739.69
2023-12-16T00:55:33.722Z,103734.34
2023-12-16T00:58:00.795Z,103742.09
2023-12-16T01:00:27.859Z,103747.47
2023-12-16T01:02:54.978Z,103750.09
2023-12-16T01:05:22.209Z,103750.09
2023-12-16T01:07:49.272Z,103751.00
2023-12-16T01:10:16.556Z,103749.16
2023-12-16T01:12:43.803Z,103749.16
2023-12-16T01:15:11.396Z,103743.13
2023-12-16T01:17:38.898Z,103750.09
2023-12-16T01:20:07.438Z,103751.69
2023-12-16T01:22:34.613Z,103751.69
2023-12-16T01:25:01.696Z,103758.66
2023-12-16T01:27:28.819Z,103742.84
2023-12-16T01:29:58.926Z,103743.75
2023-12-16T01:32:25.947Z,103749.91
2023-12-16T01:34:52.998Z,103743.91
2023-12-16T01:37:20.083Z,103747.47
2023-12-16T01:39:47.131Z,103736.16
2023-12-16T01:42:14.341Z,103740.50
2023-12-16T01:44:41.342Z,103728.28
2023-12-16T01:47:08.955Z,103720.50
2023-12-16T01:49:36.238Z,103728.28
2023-12-16T01:52:04.219Z,103735.25
2023-12-16T01:54:31.614Z,103735.25
2023-12-16T01:57:00.825Z,103731.72
2023-12-16T01:59:28.393Z,103735.34
2023-12-16T02:01:56.834Z,103739.69
2023-12-16T02:04:24.242Z,103739.69
2023-12-16T02:06:52.079Z,103738.66
2023-12-16T02:09:20.968Z,103747.34
2023-12-16T02:11:48.332Z,103748.09
2023-12-16T02:14:15.506Z,103746.28
2023-12-16T02:16:43.453Z,103740.06
2023-12-16T02:19:16.257Z,103733.03
2023-12-16T02:21:43.415Z,103738.16
2023-12-16T02:24:10.483Z,103737.16
2023-12-16T02:26:37.533Z,103731.03
2023-12-16T02:29:04.611Z,103727.34
2023-12-16T02:31:32.099Z,103730.66
2023-12-16T02:33:59.230Z,103718.22
2023-12-16T02:36:26.610Z,103723.09
2023-12-16T02:38:53.686Z,103724.34
2023-12-16T02:41:22.568Z,103727.31
2023-12-16T02:43:49.625Z,103729.34
2023-12-16T02:46:16.785Z,103742.97
2023-12-16T02:48:43.897Z,103744.22
2023-12-16T02:51:21.160Z,103747.28
2023-12-16T02:53:48.650Z,103739.00
2023-12-16T02:56:15.836Z,103747.56
2023-12-16T02:58:43.441Z,103748.28
2023-12-16T03:01:10.657Z,103745.50
2023-12-16T03:03:39.137Z,103738.72
2023-12-16T03:06:10.004Z,103735.28
2023-12-16T03:08:37.485Z,103734.38
2023-12-16T03:11:05.473Z,103721.28
2023-12-16T03:13:32.682Z,103724.72
2023-12-16T03:16:00.024Z,103724.72
2023-12-16T03:18:27.134Z,103713.25
2023-12-16T03:20:54.385Z,103726.34
2023-12-16T03:23:22.788Z,103724.44
2023-12-16T03:25:52.041Z,103716.56
2023-12-16T03:28:19.753Z,103726.22
2023-12-16T03:30:47.025Z,103724.53
2023-12-16T03:33:14.247Z,103729.88
2023-12-16T03:35:41.447Z,103738.53
2023-12-16T03:38:08.554Z,103742.75
2023-12-16T03:40:36.217Z,103743.78
2023-12-16T03:43:03.612Z,103742.06
2023-12-16T03:45:30.686Z,103741.34
2023-12-16T03:47:57.894Z,103736.25
2023-12-16T03:50:25.042Z,103739.00
2023-12-16T03:52:52.091Z,103739.25
2023-12-16T03:55:19.138Z,103735.91
2023-12-16T03:57:46.246Z,103738.72
2023-12-16T04:00:14.341Z,103741.59
2023-12-16T04:02:41.448Z,103739.97
2023-12-16T04:05:09.764Z,103737.47
2023-12-16T04:07:37.147Z,103733.13
2023-12-16T04:10:05.386Z,103725.28
2023-12-16T04:12:33.066Z,103736.75
2023-12-16T04:15:00.297Z,103744.78
2023-12-16T04:17:27.589Z,103729.94
2023-12-16T04:19:56.176Z,103736.91
2023-12-16T04:22:23.681Z,103728.22
2023-12-16T04:24:52.057Z,103730.97
2023-12-16T04:27:19.521Z,103731.94
2023-12-16T04:29:46.673Z,103730.22
2023-12-16T04:32:13.835Z,103739.09
2023-12-16T04:34:40.951Z,103733.91
2023-12-16T04:37:08.159Z,103729.59
2023-12-16T04:39:35.208Z,103734.81
2023-12-16T04:42:02.231Z,103740.97
2023-12-16T04:44:29.279Z,103728.59
2023-12-16T04:46:56.572Z,103733.03
2023-12-16T04:49:23.983Z,103732.84
2023-12-16T04:51:51.111Z,103728.22
2023-12-16T04:54:18.240Z,103722.81
2023-12-16T04:56:45.336Z,103720.84
2023-12-16T04:59:12.482Z,103717.94
2023-12-16T05:01:39.617Z,103722.13
2023-12-16T05:04:07.335Z,103723.84
2023-12-16T05:06:34.602Z,103724.44
2023-12-16T05:09:01.829Z,103723.47
2023-12-16T05:11:28.905Z,103723.16
2023-12-16T05:13:55.995Z,103727.41
2023-12-16T05:16:25.067Z,103723.53
2023-12-16T05:18:52.448Z,103725.88
2023-12-16T05:21:19.650Z,103730.81
2023-12-16T05:23:46.740Z,103725.34
2023-12-16T05:26:13.997Z,103723.41
2023-12-16T05:28:41.100Z,103730.09
2023-12-16T05:31:08.583Z,103728.09
2023-12-16T05:33:35.836Z,103731.34
2023-12-16T05:36:03.111Z,103739.00
2023-12-16T05:38:30.252Z,103741.44
2023-12-16T05:40:57.474Z,103743.88
2023-12-16T05:43:24.589Z,103735.72
2023-12-16T05:45:51.642Z,103745.19
2023-12-16T05:48:18.969Z,103740.56
2023-12-16T05:50:46.072Z,103749.03
2023-12-16T05:53:14.252Z,103744.53
2023-12-16T05:55:41.416Z,103746.25
2023-12-16T05:58:08.511Z,103742.41
2023-12-16T06:00:35.827Z,103745.75
2023-12-16T06:03:03.072Z,103740.22
2023-12-16T06:05:30.233Z,103740.03
2023-12-16T06:07:57.313Z,103744.28
2023-12-16T06:10:24.610Z,103737.13
2023-12-16T06:12:51.838Z,103737.03
2023-12-16T06:15:18.893Z,103730.72
2023-12-16T06:17:46.359Z,103743.66
2023-12-16T06:20:13.850Z,103738.25
2023-12-16T06:22:41.130Z,103748.63
2023-12-16T06:25:08.825Z,103758.09
2023-12-16T06:27:35.998Z,103756.97
2023-12-16T06:30:03.583Z,103752.56
2023-12-16T06:32:30.769Z,103752.47
2023-12-16T06:34:58.074Z,103744.53
2023-12-16T06:37:25.142Z,103747.03
2023-12-16T06:39:52.179Z,103745.09
2023-12-16T06:42:19.365Z,103744.13
2023-12-16T06:44:46.516Z,103740.50
2023-12-16T06:47:13.605Z,103736.91
2023-12-16T06:49:40.626Z,103734.16
2023-12-16T06:52:07.808Z,103744.63
2023-12-16T06:54:34.925Z,103735.88
2023-12-16T06:57:02.045Z,103740.09
2023-12-16T06:59:29.189Z,103741.72
2023-12-16T07:01:56.484Z,103742.63
2023-12-16T07:04:25.468Z,103739.00
2023-12-16T07:06:52.611Z,103748.56
2023-12-16T07:09:19.691Z,103755.47
2023-12-16T07:11:46.803Z,103756.28
2023-12-16T07:14:13.951Z,103751.06
2023-12-16T07:16:40.986Z,103757.19
2023-12-16T07:19:09.025Z,103759.69
2023-12-16T07:21:36.138Z,103766.72
2023-12-16T07:24:03.389Z,103764.84
2023-12-16T07:26:30.490Z,103774.47
2023-12-16T07:28:57.776Z,103766.63
2023-12-16T07:31:25.176Z,103768.44
2023-12-16T07:33:52.756Z,103770.25
2023-12-16T07:36:20.329Z,103772.09
2023-12-16T07:38:47.451Z,103773.00
2023-12-16T07:41:14.754Z,103774.72
2023-12-16T07:43:42.234Z,103779.94
2023-12-16T07:46:09.705Z,103774.00
2023-12-16T07:48:36.887Z,103780.13
2023-12-16T07:51:04.314Z,103780.22
2023-12-16T07:53:31.569Z,103786.44
2023-12-16T07:55:58.712Z,103790.09
2023-12-16T07:58:25.779Z,103791.09
2023-12-16T08:00:53.160Z,103781.63
2023-12-16T08:03:20.281Z,103780.09
2023-12-16T08:05:47.500Z,103790.78
2023-12-16T08:08:14.705Z,103797.91
2023-12-16T08:10:42.009Z,103796.41
2023-12-16T08:13:09.309Z,103799.22
2023-12-16T08:15:36.576Z,103801.13
2023-12-16T08:18:03.826Z,103811.66
2023-12-16T08:20:31.072Z,103811.09
2023-12-16T08:22:58.151Z,103810.28
2023-12-16T08:25:25.242Z,103807.25
2023-12-16T08:27:52.319Z,103813.88
2023-12-16T08:30:19.633Z,103812.34
2023-12-16T08:32:46.749Z,103805.53
2023-12-16T08:35:15.758Z,103802.38
2023-12-16T08:37:43.013Z,103801.16
2023-12-16T08:40:11.909Z,103801.81
2023-12-16T08:42:44.008Z,103809.47
2023-12-16T08:45:12.029Z,103812.56
2023-12-16T08:47:39.431Z,103816.66
2023-12-16T08:50:09.182Z,103809.25
2023-12-16T08:52:36.867Z,103808.00
2023-12-16T08:55:08.088Z,103819.06
2023-12-16T08:57:35.168Z,103814.38
2023-12-16T09:00:02.362Z,103810.50
2023-12-16T09:02:30.131Z,103804.88
2023-12-16T09:04:57.226Z,103812.31
2023-12-16T09:07:24.560Z,103815.34
2023-12-16T09:09:51.694Z,103812.25
2023-12-16T09:12:19.481Z,103815.41
2023-12-16T09:14:46.777Z,103814.03
2023-12-16T09:17:14.102Z,103805.72
2023-12-16T09:19:41.258Z,103809.69
2023-12-16T09:22:08.577Z,103807.50
2023-12-16T09:24:35.815Z,103813.06
2023-12-16T09:27:03.223Z,103824.91
2023-12-16T09:29:30.374Z,103827.91
2023-12-16T09:31:57.949Z,103832.69
2023-12-16T09:34:25.036Z,103821.56
2023-12-16T09:36:52.139Z,103816.63
2023-12-16T09:39:19.228Z,103817.03
2023-12-16T09:41:47.816Z,103830.59
2023-12-16T09:44:20.468Z,103832.81
2023-12-16T09:46:49.059Z,103838.44
2023-12-16T09:49:17.643Z,103837.94
2023-12-16T09:51:45.666Z,103842.59
2023-12-16T09:54:13.495Z,103850.84
2023-12-16T09:56:41.091Z,103846.81
2023-12-16T09:59:09.313Z,103849.88
2023-12-16T10:01:36.606Z,103837.13
2023-12-16T10:04:07.488Z,103840.16
2023-12-16T10:06:35.209Z,103841.38
2023-12-16T10:09:02.295Z,103842.69
2023-12-16T10:11:30.170Z,103836.91
2023-12-16T10:14:01.421Z,103838.16
2023-12-16T10:16:29.210Z,103845.56
2023-12-16T10:18:59.464Z,103849.31
2023-12-16T10:21:34.882Z,103845.06
2023-12-16T10:24:03.637Z,103847.84
2023-12-16T10:26:33.210Z,103847.00
2023-12-16T10:29:05.607Z,103839.28
2023-12-16T10:31:34.355Z,103828.00
2023-12-16T10:34:02.849Z,103836.13
2023-12-16T10:36:31.775Z,103838.03
2023-12-16T10:38:59.783Z,103831.94
2023-12-16T10:41:27.139Z,103842.59
2023-12-16T10:43:57.409Z,103841.03
2023-12-16T10:46:35.349Z,103843.69
2023-12-16T10:49:08.419Z,103838.41
2023-12-16T10:51:43.428Z,103836.81
2023-12-16T10:54:34.675Z,103835.09
2023-12-16T10:57:36.421Z,103836.69
2023-12-16T11:00:07.268Z,103832.47
2023-12-16T11:03:18.294Z,103826.53
2023-12-16T11:05:52.275Z,103823.16
2023-12-16T11:08:25.165Z,103832.91
2023-12-16T11:10:56.503Z,103823.34
2023-12-16T11:13:24.785Z,103820.00
2023-12-16T11:16:00.108Z,103825.41
2023-12-16T11:18:31.979Z,103815.78
2023-12-16T11:21:06.403Z,103814.22
2023-12-16T11:23:35.343Z,103804.03
2023-12-16T11:26:06.374Z,103803.34
2023-12-16T11:28:34.230Z,103799.13
2023-12-16T11:31:01.585Z,103801.84
2023-12-16T11:33:49.265Z,103798.16
2023-12-16T11:36:17.372Z,103800.66
2023-12-16T11:38:48.428Z,103795.31
2023-12-16T11:41:37.907Z,103797.84
2023-12-16T11:44:07.255Z,103794.31
2023-12-16T11:46:44.472Z,103797.03
2023-12-16T11:49:16.170Z,103792.59
2023-12-16T11:51:45.326Z,103788.31
2023-12-16T11:54:16.860Z,103786.66
2023-12-16T11:56:44.021Z,103776.19
2023-12-16T11:59:12.654Z,103775.38
2023-12-16T12:01:40.500Z,103784.94
2023-12-16T12:04:09.096Z,103779.59
2023-12-16T12:06:38.177Z,103771.69
2023-12-16T12:09:06.870Z,103773.44
2023-12-16T12:11:34.065Z,103774.34
2023-12-16T12:14:03.993Z,103769.97
2023-12-16T12:16:31.262Z,103763.81
2023-12-16T12:18:58.908Z,103761.09
2023-12-16T12:21:26.856Z,103763.81
2023-12-16T12:23:54.435Z,103759.38
2023-12-16T12:26:25.087Z,103756.81
2023-12-16T12:29:02.350Z,103744.47
2023-12-16T12:31:31.385Z,103742.66
2023-12-16T12:33:58.935Z,103750.41
2023-12-16T12:36:31.726Z,103749.50
2023-12-16T12:38:59.791Z,103739.94
2023-12-16T12:41:27.413Z,103744.47
2023-12-16T12:43:54.817Z,103735.81
2023-12-16T12:46:23.240Z,103732.22
2023-12-16T12:48:57.892Z,103738.31
2023-12-16T12:51:27.423Z,103734.69
2023-12-16T12:54:01.991Z,103734.53
2023-12-16T12:56:30.356Z,103731.78
2023-12-16T12:58:59.420Z,103727.19
2023-12-16T13:01:29.338Z,103735.00
2023-12-16T13:03:56.878Z,103731.41
2023-12-16T13:06:24.414Z,103720.81
2023-12-16T13:08:52.925Z,103720.72
2023-12-16T13:11:20.175Z,103712.69
2023-12-16T13:13:49.926Z,103710.88
2023-12-16T13:16:17.388Z,103697.59
2023-12-16T13:18:45.633Z,103697.66
2023-12-16T13:21:14.774Z,103701.19
2023-12-16T13:23:44.739Z,103688.72
2023-12-16T13:26:15.878Z,103691.34
2023-12-16T13:28:43.470Z,103685.94
2023-12-16T13:31:11.898Z,103691.13
2023-12-16T13:33:41.962Z,103689.34
2023-12-16T13:36:32.990Z,103684.13
2023-12-16T13:38:58.608Z,103688.44
2023-12-16T13:41:25.950Z,103691.88
2023-12-16T13:43:53.191Z,103683.91
2023-12-16T13:46:20.431Z,103682.09
2023-12-16T13:48:47.987Z,103682.03
2023-12-16T13:51:15.206Z,103669.72
2023-12-16T13:53:43.996Z,103671.38
2023-12-16T13:56:11.310Z,103669.66
2023-12-16T13:58:39.948Z,103667.91
2023-12-16T14:01:07.206Z,103679.28
2023-12-16T14:03:35.021Z,103678.28
2023-12-16T14:06:03.809Z,103673.84
2023-12-16T14:08:32.581Z,103685.34
2023-12-16T14:10:59.823Z,103680.78
2023-12-16T14:13:27.071Z,103686.81
2023-12-16T14:15:54.264Z,103682.44
2023-12-16T14:18:21.763Z,103680.63
2023-12-16T14:20:48.952Z,103682.38
2023-12-16T14:23:16.321Z,103682.28
2023-12-16T14:25:43.475Z,103676.09
2023-12-16T14:28:13.164Z,103676.88
2023-12-16T14:30:42.911Z,103685.53
2023-12-16T14:33:10.883Z,103682.81
2023-12-16T14:35:38.777Z,103679.25
2023-12-16T14:38:06.535Z,103680.19
2023-12-16T14:40:34.028Z,103674.00
2023-12-16T14:43:02.351Z,103675.72
2023-12-16T14:45:30.024Z,103679.19
2023-12-16T14:47:57.550Z,103677.31
2023-12-16T14:50:24.863Z,103670.34
2023-12-16T14:52:51.915Z,103679.88
2023-12-16T14:55:19.560Z,103676.44
2023-12-16T14:57:46.907Z,103680.78
2023-12-16T15:00:16.436Z,103675.38
2023-12-16T15:02:45.230Z,103670.94
2023-12-16T15:05:12.444Z,103669.19
2023-12-16T15:07:40.344Z,103669.97
2023-12-16T15:10:08.394Z,103672.59
2023-12-16T15:12:35.637Z,103669.97
2023-12-16T15:15:02.928Z,103668.97
2023-12-16T15:17:30.217Z,103667.09
2023-12-16T15:19:57.581Z,103664.47
2023-12-16T15:22:24.963Z,103660.94
2023-12-16T15:24:53.175Z,103660.81
2023-12-16T15:27:20.583Z,103662.56
2023-12-16T15:29:47.891Z,103667.75
2023-12-16T15:32:16.791Z,103663.31
2023-12-16T15:34:44.798Z,103664.91
2023-12-16T15:37:17.559Z,103671.06
2023-12-16T15:39:46.269Z,103670.16
2023-12-16T15:42:13.575Z,103664.91
2023-12-16T15:44:40.793Z,103665.63
2023-12-16T15:47:08.017Z,103657.75
2023-12-16T15:49:35.523Z,103651.59
2023-12-16T15:52:04.649Z,103658.56
2023-12-16T15:54:31.840Z,103663.84
2023-12-16T15:57:00.646Z,103655.06
2023-12-16T15:59:30.857Z,103654.22
2023-12-16T16:01:58.011Z,103652.34
2023-12-16T16:04:25.156Z,103654.09
2023-12-16T16:06:52.330Z,103646.97
2023-12-16T16:09:20.405Z,103658.38
2023-12-16T16:11:48.632Z,103652.28
2023-12-16T16:14:15.905Z,103666.25
2023-12-16T16:16:43.162Z,103661.91
2023-12-16T16:19:10.495Z,103658.38
2023-12-16T16:21:37.796Z,103662.72
2023-12-16T16:24:05.180Z,103664.53
2023-12-16T16:26:34.334Z,103667.16
2023-12-16T16:29:05.496Z,103664.44
2023-12-16T16:31:37.142Z,103689.97
2023-12-16T16:34:06.817Z,103700.50
2023-12-16T16:36:34.515Z,103701.47
2023-12-16T16:39:02.077Z,103694.56
2023-12-16T16:41:32.001Z,103692.81
2023-12-16T16:44:00.941Z,103686.75
2023-12-16T16:46:29.491Z,103689.38
2023-12-16T16:48:57.124Z,103688.47
2023-12-16T16:51:24.476Z,103684.09
2023-12-16T16:53:51.755Z,103692.81
2023-12-16T16:56:19.931Z,103699.81
2023-12-16T16:58:47.162Z,103702.44
2023-12-16T17:01:14.532Z,103698.19
2023-12-16T17:03:42.521Z,103698.97
2023-12-16T17:06:10.291Z,103691.94
2023-12-16T17:08:37.790Z,103692.81
2023-12-16T17:11:05.791Z,103709.50
2023-12-16T17:13:33.072Z,103703.44
2023-12-16T17:16:00.316Z,103682.31
2023-12-16T17:18:28.345Z,103676.22
2023-12-16T17:20:55.723Z,103669.28
2023-12-16T17:23:23.433Z,103666.63
2023-12-16T17:25:50.577Z,103668.34
2023-12-16T17:28:17.743Z,103678.84
2023-12-16T17:30:45.725Z,103667.53
2023-12-16T17:33:13.070Z,103676.22
2023-12-16T17:35:41.476Z,103673.59
2023-12-16T17:38:08.884Z,103680.75
2023-12-16T17:40:35.953Z,103682.47
2023-12-16T17:43:03.151Z,103691.19
2023-12-16T17:45:30.270Z,103689.47
2023-12-16T17:47:57.559Z,103682.41
2023-12-16T17:50:25.403Z,103670.25
2023-12-16T17:52:52.527Z,103666.78
2023-12-16T17:55:19.848Z,103671.06
2023-12-16T17:57:48.840Z,103677.28
2023-12-16T18:00:18.014Z,103672.94
2023-12-16T18:02:45.198Z,103676.53
2023-12-16T18:05:12.555Z,103674.66
2023-12-16T18:07:40.110Z,103687.06
2023-12-16T18:10:08.016Z,103691.47
2023-12-16T18:12:35.200Z,103676.59
2023-12-16T18:15:02.730Z,103676.72
2023-12-16T18:17:32.814Z,103684.59
2023-12-16T18:19:59.907Z,103685.50
2023-12-16T18:22:26.957Z,103689.91
2023-12-16T18:24:54.173Z,103692.56
2023-12-16T18:27:21.247Z,103694.28
2023-12-16T18:29:48.617Z,103698.72
2023-12-16T18:32:15.975Z,103685.63
2023-12-16T18:34:43.438Z,103682.22
2023-12-16T18:37:10.619Z,103693.63
2023-12-16T18:39:38.582Z,103708.56
2023-12-16T18:42:07.548Z,103705.94
2023-12-16T18:44:34.964Z,103713.00
2023-12-16T18:47:02.214Z,103705.13
2023-12-16T18:49:30.754Z,103703.50
2023-12-16T18:51:57.942Z,103695.50
2023-12-16T18:54:25.072Z,103698.06
2023-12-16T18:56:53.471Z,103697.22
2023-12-16T18:59:20.678Z,103707.75
2023-12-16T19:01:48.316Z,103698.94
2023-12-16T19:04:15.598Z,103703.38
2023-12-16T19:06:42.925Z,103697.22
2023-12-16T19:09:10.377Z,103687.59
2023-12-16T19:11:39.528Z,103686.72
2023-12-16T19:14:07.302Z,103691.06
2023-12-16T19:16:36.945Z,103698.13
2023-12-16T19:19:04.492Z,103703.31
2023-12-16T19:21:31.650Z,103693.78
2023-12-16T19:23:58.886Z,103685.81
2023-12-16T19:26:26.094Z,103689.25
2023-12-16T19:28:53.261Z,103678.81
2023-12-16T19:31:20.457Z,103684.06
2023-12-16T19:33:49.673Z,103682.28
2023-12-16T19:36:16.975Z,103680.53
2023-12-16T19:38:44.320Z,103681.44
2023-12-16T19:41:12.186Z,103692.06
2023-12-16T19:43:39.316Z,103691.16
2023-12-16T19:46:07.141Z,103691.16
2023-12-16T19:48:35.444Z,103698.94
2023-12-16T19:51:13.678Z,103704.22
2023-12-16T19:53:43.024Z,103705.13
2023-12-16T19:56:13.864Z,103703.31
2023-12-16T19:58:45.031Z,103721.72
2023-12-16T20:01:16.060Z,103711.28
2023-12-16T20:03:49.877Z,103714.00
2023-12-16T20:06:20.081Z,103728.88
2023-12-16T20:08:47.685Z,103714.00
2023-12-16T20:11:14.950Z,103724.53
2023-12-16T20:13:44.649Z,103727.97
2023-12-16T20:16:14.735Z,103716.47
2023-12-16T20:18:42.186Z,103724.34
2023-12-16T20:21:11.874Z,103735.69
2023-12-16T20:23:39.230Z,103749.03
2023-12-16T20:26:08.508Z,103747.19
2023-12-16T20:28:35.767Z,103748.09
2023-12-16T20:31:03.430Z,103758.59
2023-12-16T20:33:30.817Z,103751.53
2023-12-16T20:35:58.292Z,103749.03
2023-12-16T20:38:44.424Z,103743.75
2023-12-16T20:41:13.475Z,103737.56
2023-12-16T20:43:42.367Z,103736.66
2023-12-16T20:46:09.675Z,103729.63
2023-12-16T20:48:39.931Z,103725.19
2023-12-16T20:51:09.606Z,103733.88
2023-12-16T20:53:37.980Z,103736.44
2023-12-16T20:56:06.166Z,103750.56
2023-12-16T20:58:34.964Z,103744.38
2023-12-16T21:01:03.126Z,103744.50
2023-12-16T21:03:30.703Z,103744.56
2023-12-16T21:05:58.156Z,103735.69
2023-12-16T21:08:25.401Z,103734.88
2023-12-16T21:10:52.729Z,103726.97
2023-12-16T21:13:20.883Z,103727.06
2023-12-16T21:15:49.561Z,103712.09
2023-12-16T21:18:16.891Z,103705.13
2023-12-16T21:20:45.982Z,103714.00
2023-12-16T21:23:13.778Z,103713.00
2023-12-16T21:25:42.251Z,103719.16
2023-12-16T21:28:09.430Z,103722.72
2023-12-16T21:30:38.035Z,103727.97
2023-12-16T21:33:05.471Z,103732.31
2023-12-16T21:35:33.063Z,103743.84
2023-12-16T21:38:00.642Z,103743.75
2023-12-16T21:40:28.182Z,103739.41
2023-12-16T21:42:55.899Z,103739.47
2023-12-16T21:45:23.164Z,103729.78
2023-12-16T21:47:51.466Z,103730.69
2023-12-16T21:50:20.087Z,103731.59
2023-12-16T21:52:47.321Z,103733.31
2023-12-16T21:55:14.468Z,103732.47
2023-12-16T21:57:44.125Z,103737.69
2023-12-16T22:00:12.159Z,103739.53
2023-12-16T22:02:39.469Z,103733.38
2023-12-16T22:05:09.429Z,103730.69
2023-12-16T22:07:38.702Z,103732.47
2023-12-16T22:10:07.194Z,103729.03
2023-12-16T22:12:35.491Z,103739.53
2023-12-16T22:15:02.941Z,103727.16
2023-12-16T22:17:30.166Z,103733.31
2023-12-16T22:19:58.249Z,103719.16
2023-12-16T22:22:26.926Z,103723.63
2023-12-16T22:24:54.074Z,103714.72
2023-12-16T22:27:22.922Z,103722.63
2023-12-16T22:29:52.626Z,103718.19
2023-12-16T22:32:20.117Z,103715.56
2023-12-16T22:34:47.334Z,103712.94
2023-12-16T22:37:14.541Z,103720.00
2023-12-16T22:39:41.919Z,103715.47
2023-12-16T22:42:09.182Z,103715.56
2023-12-16T22:44:36.772Z,103725.06
2023-12-16T22:47:08.192Z,103729.69
2023-12-16T22:49:37.900Z,103718.25
2023-12-16T22:52:05.642Z,103730.63
2023-12-16T22:54:33.527Z,103737.69
2023-12-16T22:57:01.031Z,103743.84
2023-12-16T22:59:29.224Z,103735.03
2023-12-16T23:01:56.559Z,103717.47
2023-12-16T23:04:25.279Z,103713.91
2023-12-16T23:06:52.434Z,103701.59
2023-12-16T23:09:21.236Z,103687.53
2023-12-16T23:11:51.562Z,103704.31
2023-12-16T23:14:19.731Z,103701.69
2023-12-16T23:16:49.889Z,103702.59
2023-12-16T23:19:17.213Z,103701.69
2023-12-16T23:21:47.331Z,103706.94
2023-12-16T23:24:15.645Z,103707.84
2023-12-16T23:26:46.264Z,103699.97
2023-12-16T23:29:14.288Z,103699.84
2023-12-16T23:31:45.279Z,103700.75
2023-12-16T23:34:12.722Z,103697.22
2023-12-16T23:36:39.979Z,103715.72
2023-12-16T23:39:10.406Z,103706.00
2023-12-16T23:41:37.589Z,103700.69
2023-12-16T23:44:05.914Z,103700.69
2023-12-16T23:46:33.149Z,103704.22
2023-12-16T23:49:02.268Z,103713.91
2023-12-16T23:51:30.585Z,103710.47
2023-12-16T23:53:58.032Z,103711.38
2023-12-16T23:56:26.781Z,103714.97
2023-12-16T23:58:53.933Z,103716.78
